Newport News Williamsburg International Airport
KPHF : rendu visible

Aérodrome :











RETROUVEZ-NOUS SUR...

 
LOGIN :

S'inscrire | Disclaimer

   EN    FR    IT 

 









Légende :    VFR   VFR Marginal   IFR   IFR Intensif   IFR Très Intensif
Visi : 
Plafond : 
>= 8 km
>= 3000ft
5 à 8 km
1000 à 3000 ft
1500m à 5 km
500 à 1000 ft
800 à 1500m
200 à 500 ft
< 800m
< 200 ft
Symboles :   Orages  Brouillard  Fortes neiges  Fortes précipitations  Vent > 20 kt






- Altitude de l'aérodrome : 42 ft
- Code IATA : PHF


KPHF - Newport News Williamsburg International

DERNIER METAR :
  • 201054Z 04006KT 10SM CLR 04/M02 A3042 RMK AO2 SLP302 T00441022

METARs EXPIRÉS :
  • 200954Z 02005KT 10SM CLR 03/M03 A3042 RMK AO2 SLP301 T00331028
  • 200854Z 04004KT 10SM CLR 02/M02 A3040 RMK AO2 SLP295 I3000 T00221022 56003

TAF KPHF
Valide du 20 à 06h jusqu'au 21 à 06h UTC


200520Z 2006/2106 03004KT P6SM OVC200
FM201700 03009KT P6SM OVC040
FM202100 03009KT 6SM -RASN OVC020
FM202300 03010KT 3SM -SN BR OVC012



MET'MAP, la Météo Aéronautique d'un coup d'oeil ! - Copyright ORBIFLY Décembre 2007 - Disclaimer

ORBIFLY MET'MAP TEAM :

Programmation & Développement : Alexandra Zaïnal
Sur une idée originale de : Baudouin d'Aumeries
Assistance à la programmation : Marc-Olivier Méhu
Soutien technique & logistique : Manuel Goepfert

Contact : metmap@orbifly.com




SOURCES & CREDITS :

   NOAA       Earth
Advisory